Time;durP1;ratioP1;P1;durP2;ratioP2;P2;SDS_P1;SDS_P2;PMS_P1;PMS_P2;Temp;Humidity;BMP_temperature;BMP_pressure;BME280_temperature;BME280_humidity;BME280_pressure;Samples;Min_cycle;Max_cycle;Signal;HPM_P1;HPM_P2
2022/11/22 00:01:09;;;;;;;;;;;-1.80;99.90;;;;;;5068550;28;19955;-62
2022/11/22 00:03:35;;;;;;;;;;;-1.90;99.90;;;;;;5069170;28;19965;-58
2022/11/22 00:06:00;;;;;;;;;;;-1.90;99.90;;;;;;5051895;28;19912;-58
2022/11/22 00:08:26;;;;;;;;;;;-1.90;99.90;;;;;;5069086;28;20282;-57
2022/11/22 00:10:51;;;;;;;;;;;-1.90;99.90;;;;;;5068832;28;19904;-57
2022/11/22 00:13:17;;;;;;;;;;;-1.90;99.90;;;;;;5067671;28;19908;-56
2022/11/22 00:15:43;;;;;;;;;;;-1.90;99.90;;;;;;5071777;28;19904;-59
2022/11/22 00:18:08;;;;;;;;;;;-1.90;99.90;;;;;;5061814;28;20383;-57
2022/11/22 00:20:34;;;;;;;;;;;-1.80;99.90;;;;;;5066920;28;19908;-58
2022/11/22 00:22:59;;;;;;;;;;;-1.80;99.90;;;;;;5061644;28;20359;-59
2022/11/22 00:25:25;;;;;;;;;;;-1.80;99.90;;;;;;5072294;28;19912;-58
2022/11/22 00:27:50;;;;;;;;;;;-1.80;99.90;;;;;;5072162;28;19924;-58
2022/11/22 00:30:16;;;;;;;;;;;-1.80;99.90;;;;;;5072340;28;19955;-58
2022/11/22 00:32:41;;;;;;;;;;;-1.80;99.90;;;;;;5070824;28;19909;-57
2022/11/22 00:35:08;;;;;;;;;;;-1.80;99.90;;;;;;5069138;28;20241;-58
2022/11/22 00:37:33;;;;;;;;;;;-1.70;99.90;;;;;;5066251;28;20453;-59
2022/11/22 00:39:58;;;;;;;;;;;-1.80;99.90;;;;;;5072056;28;20006;-58
2022/11/22 00:42:24;;;;;;;;;;;-1.80;99.90;;;;;;5071637;28;20286;-56
2022/11/22 00:44:49;;;;;;;;;;;-1.80;99.90;;;;;;5071932;28;19908;-59
2022/11/22 00:47:15;;;;;;;;;;;-1.70;99.90;;;;;;5072099;28;20372;-57
2022/11/22 00:49:40;;;;;;;;;;;-1.70;99.90;;;;;;5071708;28;20319;-58
2022/11/22 00:52:06;;;;;;;;;;;-1.70;99.90;;;;;;5071507;28;19912;-58
2022/11/22 00:54:31;;;;;;;;;;;-1.70;99.90;;;;;;5072217;28;20371;-58
2022/11/22 00:56:57;;;;;;;;;;;-1.70;99.90;;;;;;5071357;28;19912;-60
2022/11/22 00:59:22;;;;;;;;;;;-1.70;99.90;;;;;;5067174;28;20373;-59
2022/11/22 01:01:48;;;;;;;;;;;-1.70;99.90;;;;;;5067501;28;20011;-57
2022/11/22 01:04:13;;;;;;;;;;;-1.70;99.90;;;;;;5057049;28;20407;-58
2022/11/22 01:06:38;;;;;;;;;;;-1.70;99.90;;;;;;5071243;28;20042;-58
2022/11/22 01:09:04;;;;;;;;;;;-1.70;99.90;;;;;;5071036;28;19912;-56
2022/11/22 01:11:29;;;;;;;;;;;-1.70;99.90;;;;;;5071593;28;20359;-58
2022/11/22 01:13:55;;;;;;;;;;;-1.70;99.90;;;;;;5068018;28;20330;-60
2022/11/22 01:16:20;;;;;;;;;;;-1.60;99.90;;;;;;5071504;28;19908;-57
2022/11/22 01:18:46;;;;;;;;;;;-1.70;99.90;;;;;;5062294;28;19913;-57
2022/11/22 01:21:11;;;;;;;;;;;-1.60;99.90;;;;;;5070830;28;19916;-58
2022/11/22 01:23:37;;;;;;;;;;;-1.60;99.90;;;;;;5070051;28;19942;-58
2022/11/22 01:26:05;;;;;;;;;;;-1.60;99.90;;;;;;5070386;28;19915;-58
2022/11/22 01:28:30;;;;;;;;;;;-1.60;99.90;;;;;;5067570;28;20038;-60
2022/11/22 01:30:55;;;;;;;;;;;-1.60;99.90;;;;;;5070199;28;19920;-58
2022/11/22 01:33:21;;;;;;;;;;;-1.60;99.90;;;;;;5069744;28;20007;-59
2022/11/22 01:35:47;;;;;;;;;;;-1.60;99.90;;;;;;5070604;28;19912;-56
2022/11/22 01:38:12;;;;;;;;;;;-1.60;99.90;;;;;;5068780;28;19904;-59
2022/11/22 01:40:38;;;;;;;;;;;-1.60;99.90;;;;;;5073594;28;19908;-58
2022/11/22 01:43:03;;;;;;;;;;;-1.60;99.90;;;;;;5072852;28;19961;-59
2022/11/22 01:45:29;;;;;;;;;;;-1.60;99.90;;;;;;5070540;28;20185;-58
2022/11/22 01:48:00;;;;;;;;;;;-1.60;99.90;;;;;;5071043;28;19973;-59
2022/11/22 01:50:27;;;;;;;;;;;-1.60;99.90;;;;;;5070788;28;19957;-59
2022/11/22 01:52:53;;;;;;;;;;;-1.60;99.90;;;;;;5070316;28;20375;-58
2022/11/22 01:55:19;;;;;;;;;;;-1.60;99.90;;;;;;5061552;28;19905;-59
2022/11/22 01:57:45;;;;;;;;;;;-1.60;99.90;;;;;;5066792;28;19951;-59
2022/11/22 02:00:12;;;;;;;;;;;-1.60;99.90;;;;;;5067646;28;20273;-58
2022/11/22 02:02:38;;;;;;;;;;;-1.50;99.90;;;;;;5067296;28;19923;-57
2022/11/22 02:05:09;;;;;;;;;;;-1.50;99.90;;;;;;5069224;28;19905;-57
2022/11/22 02:07:38;;;;;;;;;;;-1.50;99.90;;;;;;5070022;28;20122;-58
2022/11/22 02:10:03;;;;;;;;;;;-1.50;99.90;;;;;;5068237;28;20003;-58
2022/11/22 02:12:30;;;;;;;;;;;-1.50;99.90;;;;;;5069799;28;20011;-57
2022/11/22 02:14:56;;;;;;;;;;;-1.50;99.90;;;;;;5070446;28;19915;-58
2022/11/22 02:17:24;;;;;;;;;;;-1.50;99.90;;;;;;5070212;28;19904;-57
2022/11/22 02:19:49;;;;;;;;;;;-1.50;99.90;;;;;;5069487;28;19974;-56
2022/11/22 02:22:29;;;;;;;;;;;-1.50;99.90;;;;;;5067400;28;20413;-59
2022/11/22 02:25:13;;;;;;;;;;;-1.50;99.90;;;;;;5072018;28;19908;-60
2022/11/22 02:27:39;;;;;;;;;;;-1.50;99.90;;;;;;5069385;28;20316;-59
2022/11/22 02:30:05;;;;;;;;;;;-1.50;99.90;;;;;;5069714;28;20102;-57
2022/11/22 02:32:30;;;;;;;;;;;-1.40;99.90;;;;;;5068728;28;20562;-54
2022/11/22 02:34:56;;;;;;;;;;;-1.40;99.90;;;;;;5069396;28;20265;-59
2022/11/22 02:37:22;;;;;;;;;;;-1.40;99.90;;;;;;5069278;28;19928;-57
2022/11/22 02:39:51;;;;;;;;;;;-1.50;99.90;;;;;;5069061;28;19908;-59
2022/11/22 02:42:16;;;;;;;;;;;-1.50;99.90;;;;;;5069356;28;19912;-59
2022/11/22 02:44:42;;;;;;;;;;;-1.40;99.90;;;;;;5069227;28;19904;-58
2022/11/22 02:47:07;;;;;;;;;;;-1.40;99.90;;;;;;5069474;28;19927;-59
2022/11/22 02:49:33;;;;;;;;;;;-1.50;99.90;;;;;;5069324;28;19905;-58
2022/11/22 02:51:58;;;;;;;;;;;-1.40;99.90;;;;;;5068643;28;20338;-58
2022/11/22 02:54:24;;;;;;;;;;;-1.40;99.90;;;;;;5068727;28;19905;-60
2022/11/22 02:56:49;;;;;;;;;;;-1.40;99.90;;;;;;5069090;28;19916;-60
2022/11/22 02:59:15;;;;;;;;;;;-1.40;99.90;;;;;;5061493;28;20308;-57
2022/11/22 03:01:42;;;;;;;;;;;-1.40;99.90;;;;;;5069535;28;19998;-58
2022/11/22 03:04:07;;;;;;;;;;;-1.30;99.90;;;;;;5067018;28;19966;-59
2022/11/22 03:06:33;;;;;;;;;;;-1.40;99.90;;;;;;5065990;28;19940;-56
2022/11/22 03:08:58;;;;;;;;;;;-1.40;99.90;;;;;;5069403;28;19905;-57
2022/11/22 03:11:24;;;;;;;;;;;-1.40;99.90;;;;;;5069161;28;19999;-55
2022/11/22 03:13:49;;;;;;;;;;;-1.40;99.90;;;;;;5069127;28;19908;-58
2022/11/22 03:16:15;;;;;;;;;;;-1.40;99.90;;;;;;5069302;28;20352;-56
2022/11/22 03:18:40;;;;;;;;;;;-1.40;99.90;;;;;;5068938;28;19909;-59
2022/11/22 03:21:07;;;;;;;;;;;-1.40;99.90;;;;;;5061043;28;19912;-56
2022/11/22 03:23:33;;;;;;;;;;;-1.40;99.90;;;;;;5074090;28;19916;-60
2022/11/22 03:25:58;;;;;;;;;;;-1.30;99.90;;;;;;5069045;28;19961;-58
2022/11/22 03:28:24;;;;;;;;;;;-1.30;99.90;;;;;;5069151;28;19995;-57
2022/11/22 03:30:50;;;;;;;;;;;-1.30;99.90;;;;;;5067773;28;19912;-59
2022/11/22 03:33:16;;;;;;;;;;;-1.30;99.90;;;;;;5068238;28;20390;-57
2022/11/22 03:35:41;;;;;;;;;;;-1.30;99.90;;;;;;5068238;28;20011;-60
2022/11/22 03:38:06;;;;;;;;;;;-1.30;99.90;;;;;;5063025;28;20308;-59
2022/11/22 03:40:32;;;;;;;;;;;-1.30;99.90;;;;;;5068882;28;19904;-58
2022/11/22 03:42:59;;;;;;;;;;;-1.30;99.90;;;;;;5077779;28;19908;-58
2022/11/22 03:45:24;;;;;;;;;;;-1.30;99.90;;;;;;5069175;28;19904;-58
2022/11/22 03:47:50;;;;;;;;;;;-1.30;99.90;;;;;;5070494;28;19930;-59
2022/11/22 03:50:15;;;;;;;;;;;-1.30;99.90;;;;;;5073043;28;20299;-58
2022/11/22 03:52:41;;;;;;;;;;;-1.30;99.90;;;;;;5072428;28;19904;-58
2022/11/22 03:55:06;;;;;;;;;;;-1.30;99.90;;;;;;5079945;28;19912;-58
2022/11/22 03:57:32;;;;;;;;;;;-1.30;99.90;;;;;;5072289;28;19974;-58
2022/11/22 03:59:57;;;;;;;;;;;-1.30;99.90;;;;;;5072893;28;19905;-58
2022/11/22 04:02:23;;;;;;;;;;;-1.30;99.90;;;;;;5072278;28;20406;-59
2022/11/22 04:04:48;;;;;;;;;;;-1.30;99.90;;;;;;5072452;28;20351;-58
2022/11/22 04:07:13;;;;;;;;;;;-1.30;99.90;;;;;;5070723;28;19913;-60
2022/11/22 04:09:39;;;;;;;;;;;-1.30;99.90;;;;;;5071102;28;19934;-59
2022/11/22 04:12:04;;;;;;;;;;;-1.30;99.90;;;;;;5072356;28;19908;-58
2022/11/22 04:17:39;;;;;;;;;;;-1.20;99.90;;;;;;5072617;28;19958;-59
2022/11/22 04:22:53;;;;;;;;;;;-1.20;99.90;;;;;;5045956;28;19912;-57
2022/11/22 04:25:19;;;;;;;;;;;-1.20;99.90;;;;;;5065587;28;20256;-59
2022/11/22 04:27:44;;;;;;;;;;;-1.20;99.90;;;;;;5072697;28;19915;-57
2022/11/22 04:30:10;;;;;;;;;;;-1.20;99.90;;;;;;5064953;28;20368;-58
2022/11/22 04:32:44;;;;;;;;;;;-1.20;99.90;;;;;;5071686;28;20311;-58
2022/11/22 04:35:11;;;;;;;;;;;-1.20;99.90;;;;;;5071655;28;19923;-57
2022/11/22 04:37:36;;;;;;;;;;;-1.20;99.90;;;;;;5063768;28;19919;-56
2022/11/22 04:40:03;;;;;;;;;;;-1.10;99.90;;;;;;5073365;28;19907;-59
2022/11/22 04:45:12;;;;;;;;;;;-1.10;99.90;;;;;;5072461;28;20315;-55
2022/11/22 04:53:06;;;;;;;;;;;-1.10;99.90;;;;;;5070265;28;20004;-59
2022/11/22 04:55:31;;;;;;;;;;;-1.10;99.90;;;;;;5071917;28;19999;-59
2022/11/22 04:57:56;;;;;;;;;;;-1.10;99.90;;;;;;5079239;28;19908;-59
2022/11/22 05:00:22;;;;;;;;;;;-1.10;99.90;;;;;;5071787;28;19904;-60
2022/11/22 05:02:47;;;;;;;;;;;-1.10;99.90;;;;;;5069811;28;20395;-58
2022/11/22 05:05:13;;;;;;;;;;;-1.00;99.90;;;;;;5061895;28;19908;-56
2022/11/22 05:07:38;;;;;;;;;;;-1.00;99.90;;;;;;5070996;28;19958;-58
2022/11/22 05:10:04;;;;;;;;;;;-1.00;99.90;;;;;;5071561;28;19908;-60
2022/11/22 05:12:29;;;;;;;;;;;-0.90;99.90;;;;;;5070085;28;20542;-59
2022/11/22 05:14:55;;;;;;;;;;;-0.90;99.90;;;;;;5070628;28;19908;-58
2022/11/22 05:17:20;;;;;;;;;;;-1.00;99.90;;;;;;5055699;28;20435;-59
2022/11/22 05:19:45;;;;;;;;;;;-0.90;99.90;;;;;;5070950;28;20983;-58
2022/11/22 05:22:11;;;;;;;;;;;-0.90;99.90;;;;;;5071601;28;19915;-56
2022/11/22 05:24:36;;;;;;;;;;;-0.90;99.90;;;;;;5070827;28;19969;-59
2022/11/22 05:27:02;;;;;;;;;;;-0.90;99.90;;;;;;5070757;28;19957;-57
2022/11/22 05:29:27;;;;;;;;;;;-0.90;99.90;;;;;;5065658;28;19951;-58
2022/11/22 05:31:53;;;;;;;;;;;-0.90;99.90;;;;;;5068583;28;19904;-59
2022/11/22 05:34:18;;;;;;;;;;;-0.90;99.90;;;;;;5070607;28;19920;-57
2022/11/22 05:36:44;;;;;;;;;;;-0.80;99.90;;;;;;5070741;28;20071;-59
2022/11/22 05:39:09;;;;;;;;;;;-0.80;99.90;;;;;;5070261;28;19912;-58
2022/11/22 05:41:34;;;;;;;;;;;-0.80;99.90;;;;;;5070709;28;19920;-59
2022/11/22 05:44:00;;;;;;;;;;;-0.80;99.90;;;;;;5053076;28;19909;-57
2022/11/22 05:46:27;;;;;;;;;;;-0.80;99.90;;;;;;5069930;28;19912;-59
2022/11/22 05:48:53;;;;;;;;;;;-0.80;99.90;;;;;;5070059;28;20364;-59
2022/11/22 05:51:20;;;;;;;;;;;-0.80;99.90;;;;;;5070136;28;19991;-59
2022/11/22 05:53:46;;;;;;;;;;;-0.80;99.90;;;;;;5068884;28;19962;-59
2022/11/22 05:56:13;;;;;;;;;;;-0.70;99.90;;;;;;5069930;28;19959;-60
2022/11/22 05:58:38;;;;;;;;;;;-0.70;99.90;;;;;;5070257;28;19911;-58
2022/11/22 06:01:05;;;;;;;;;;;-0.70;99.90;;;;;;5067521;28;20308;-59
2022/11/22 06:03:30;;;;;;;;;;;-0.70;99.90;;;;;;5070051;28;19912;-59
2022/11/22 06:05:56;;;;;;;;;;;-0.70;99.90;;;;;;5061086;28;19917;-58
2022/11/22 06:08:22;;;;;;;;;;;-0.70;99.90;;;;;;5109946;22;19920;-61
2022/11/22 06:10:47;;;;;;;;;;;-0.70;99.90;;;;;;5089264;28;20333;-60
2022/11/22 06:13:13;;;;;;;;;;;-0.60;99.90;;;;;;5086895;28;19915;-61
2022/11/22 06:15:38;;;;;;;;;;;-0.60;99.90;;;;;;5089242;28;19911;-61
2022/11/22 06:18:03;;;;;;;;;;;-0.60;99.90;;;;;;5089288;28;19912;-61
2022/11/22 06:20:29;;;;;;;;;;;-0.60;99.90;;;;;;5089594;28;20379;-61
2022/11/22 06:22:56;;;;;;;;;;;-0.60;99.90;;;;;;5089160;28;19916;-60
2022/11/22 06:25:22;;;;;;;;;;;-0.60;99.90;;;;;;5089789;28;19915;-61
2022/11/22 06:27:47;;;;;;;;;;;-0.60;99.90;;;;;;5089775;28;20311;-56
2022/11/22 06:30:13;;;;;;;;;;;-0.50;99.90;;;;;;5089174;28;19914;-61
2022/11/22 06:32:38;;;;;;;;;;;-0.50;99.90;;;;;;5089508;28;20002;-62
2022/11/22 06:35:04;;;;;;;;;;;-0.50;99.90;;;;;;5089409;28;20243;-60
2022/11/22 06:37:30;;;;;;;;;;;-0.40;99.90;;;;;;5089351;28;20325;-61
2022/11/22 06:39:55;;;;;;;;;;;-0.40;99.90;;;;;;5089799;28;19908;-61
2022/11/22 06:42:20;;;;;;;;;;;-0.40;99.90;;;;;;5089150;28;19970;-61
2022/11/22 06:44:46;;;;;;;;;;;-0.40;99.90;;;;;;5089489;28;20002;-60
2022/11/22 06:47:12;;;;;;;;;;;-0.40;99.90;;;;;;5088973;28;19916;-60
2022/11/22 06:49:37;;;;;;;;;;;-0.40;99.90;;;;;;5089854;28;19908;-60
2022/11/22 06:52:03;;;;;;;;;;;-0.30;99.90;;;;;;5089202;28;19934;-59
2022/11/22 06:54:28;;;;;;;;;;;-0.30;99.90;;;;;;5089689;28;19903;-60
2022/11/22 06:56:53;;;;;;;;;;;-0.30;99.90;;;;;;5089548;28;19908;-60
2022/11/22 06:59:19;;;;;;;;;;;-0.20;99.90;;;;;;5088992;28;19912;-58
2022/11/22 07:01:44;;;;;;;;;;;-0.20;99.90;;;;;;5088713;28;20318;-61
2022/11/22 07:04:10;;;;;;;;;;;-0.20;99.90;;;;;;5088679;28;19923;-60
2022/11/22 07:06:37;;;;;;;;;;;-0.10;99.90;;;;;;5088615;28;19939;-61
2022/11/22 07:09:04;;;;;;;;;;;-0.20;99.90;;;;;;5089014;28;19965;-61
2022/11/22 07:11:30;;;;;;;;;;;-0.20;99.90;;;;;;5088482;28;19908;-60
2022/11/22 07:13:56;;;;;;;;;;;-0.20;99.90;;;;;;5070830;28;19908;-59
2022/11/22 07:16:22;;;;;;;;;;;-0.20;99.90;;;;;;5088661;28;20306;-62
2022/11/22 07:18:47;;;;;;;;;;;-0.20;99.90;;;;;;5088627;28;19912;-61
2022/11/22 07:21:20;;;;;;;;;;;-0.10;99.90;;;;;;5088927;28;20026;-59
2022/11/22 07:23:47;;;;;;;;;;;-0.10;99.90;;;;;;5093074;28;19912;-61
2022/11/22 07:26:13;;;;;;;;;;;-0.10;99.90;;;;;;5074463;28;19911;-58
2022/11/22 07:28:39;;;;;;;;;;;-0.10;99.90;;;;;;5092665;28;19907;-61
2022/11/22 07:31:05;;;;;;;;;;;-0.10;99.90;;;;;;5092838;28;19937;-61
2022/11/22 07:33:31;;;;;;;;;;;-0.10;99.90;;;;;;5092775;28;20363;-60
2022/11/22 07:36:08;;;;;;;;;;;-0.10;99.90;;;;;;5090206;28;20329;-58
2022/11/22 07:38:33;;;;;;;;;;;-0.10;99.90;;;;;;5092215;28;19904;-59
2022/11/22 07:40:59;;;;;;;;;;;-0.10;99.90;;;;;;5092470;28;19962;-58
2022/11/22 07:43:25;;;;;;;;;;;-0.10;99.90;;;;;;5092564;28;19916;-61
2022/11/22 07:45:50;;;;;;;;;;;-0.10;99.90;;;;;;5092370;28;19911;-60
2022/11/22 07:48:15;;;;;;;;;;;-0.10;99.90;;;;;;5092571;28;19920;-60
2022/11/22 07:50:41;;;;;;;;;;;-0.10;99.90;;;;;;5076378;28;19950;-62
2022/11/22 07:53:07;;;;;;;;;;;-0.10;99.90;;;;;;5077404;28;20359;-62
2022/11/22 07:55:33;;;;;;;;;;;0.00;99.90;;;;;;5092870;28;19915;-60
2022/11/22 07:57:59;;;;;;;;;;;0.00;99.90;;;;;;5092034;28;20002;-62
2022/11/22 08:00:25;;;;;;;;;;;0.00;99.90;;;;;;5092491;28;19950;-61
2022/11/22 08:02:50;;;;;;;;;;;0.00;99.90;;;;;;5092056;28;19959;-61
2022/11/22 08:05:16;;;;;;;;;;;0.00;99.90;;;;;;5092584;28;19904;-61
2022/11/22 08:07:59;;;;;;;;;;;0.00;99.90;;;;;;5092363;28;19964;-60
2022/11/22 08:10:24;;;;;;;;;;;0.00;99.90;;;;;;5085734;28;19919;-60
2022/11/22 08:12:50;;;;;;;;;;;0.00;99.90;;;;;;5092287;28;20299;-63
2022/11/22 08:15:16;;;;;;;;;;;0.00;99.90;;;;;;5092051;28;19933;-62
2022/11/22 08:17:41;;;;;;;;;;;0.00;99.90;;;;;;5074157;28;19904;-62
2022/11/22 08:20:10;;;;;;;;;;;0.00;99.90;;;;;;5092222;28;19912;-63
2022/11/22 08:22:36;;;;;;;;;;;0.10;99.90;;;;;;5093206;28;19950;-62
2022/11/22 08:25:02;;;;;;;;;;;0.10;99.90;;;;;;5094097;28;19908;-60
2022/11/22 08:27:27;;;;;;;;;;;0.10;99.90;;;;;;5095306;28;19949;-60
2022/11/22 08:29:53;;;;;;;;;;;0.10;99.90;;;;;;5092936;28;19911;-61
2022/11/22 08:32:18;;;;;;;;;;;0.10;99.90;;;;;;5092254;28;19974;-62
2022/11/22 08:34:44;;;;;;;;;;;0.10;99.90;;;;;;5091925;28;19911;-60
2022/11/22 08:37:09;;;;;;;;;;;0.00;99.90;;;;;;5073755;28;19916;-62
2022/11/22 08:39:35;;;;;;;;;;;0.00;99.90;;;;;;5092473;28;20456;-62
2022/11/22 08:42:00;;;;;;;;;;;0.00;99.90;;;;;;5092022;28;19911;-62
2022/11/22 08:44:25;;;;;;;;;;;0.10;99.90;;;;;;5092144;28;19908;-62
2022/11/22 08:46:51;;;;;;;;;;;0.10;99.90;;;;;;5091174;28;19949;-62
2022/11/22 08:49:16;;;;;;;;;;;0.10;99.90;;;;;;5092199;28;19958;-62
2022/11/22 08:51:43;;;;;;;;;;;0.10;99.90;;;;;;5091857;28;20064;-62
2022/11/22 08:54:13;;;;;;;;;;;0.10;99.90;;;;;;5091930;28;19947;-62
2022/11/22 08:56:38;;;;;;;;;;;0.20;99.90;;;;;;5092089;28;20018;-62
2022/11/22 08:59:04;;;;;;;;;;;0.20;99.90;;;;;;5074846;28;20068;-60
2022/11/22 09:01:29;;;;;;;;;;;0.20;99.90;;;;;;5091840;28;19908;-60
2022/11/22 09:03:54;;;;;;;;;;;0.20;99.90;;;;;;5091837;28;19908;-62
2022/11/22 09:06:20;;;;;;;;;;;0.20;99.90;;;;;;5091939;28;19904;-62
2022/11/22 09:08:46;;;;;;;;;;;0.20;99.90;;;;;;5091348;28;20375;-61
2022/11/22 09:11:13;;;;;;;;;;;0.20;99.90;;;;;;5091623;28;19919;-61
2022/11/22 09:13:39;;;;;;;;;;;0.20;99.90;;;;;;5091198;28;19912;-61
2022/11/22 09:16:05;;;;;;;;;;;0.20;99.90;;;;;;5065278;28;19912;-61
2022/11/22 09:18:31;;;;;;;;;;;0.20;99.90;;;;;;5091357;28;20290;-62
2022/11/22 09:21:00;;;;;;;;;;;0.20;99.90;;;;;;5078606;28;19911;-58
2022/11/22 09:23:25;;;;;;;;;;;0.20;99.90;;;;;;5091539;28;20286;-62
2022/11/22 09:25:57;;;;;;;;;;;0.20;99.90;;;;;;5091314;28;20170;-60
2022/11/22 09:28:23;;;;;;;;;;;0.20;99.90;;;;;;5073403;28;20270;-61
2022/11/22 09:30:48;;;;;;;;;;;0.20;99.90;;;;;;5091219;28;19904;-62
2022/11/22 09:33:14;;;;;;;;;;;0.30;99.90;;;;;;5090220;28;19907;-62
2022/11/22 09:35:39;;;;;;;;;;;0.20;99.90;;;;;;5090345;28;20403;-61
2022/11/22 09:38:07;;;;;;;;;;;0.30;99.90;;;;;;5090909;28;19955;-62
2022/11/22 09:40:33;;;;;;;;;;;0.30;99.90;;;;;;5067500;28;19918;-62
2022/11/22 09:43:10;;;;;;;;;;;0.30;99.90;;;;;;5073970;28;19907;-62
2022/11/22 09:45:41;;;;;;;;;;;0.30;99.90;;;;;;5089326;28;20323;-62
2022/11/22 09:48:25;;;;;;;;;;;0.30;99.90;;;;;;5090860;28;20356;-61
2022/11/22 09:50:50;;;;;;;;;;;0.30;99.90;;;;;;5089940;28;19912;-62
2022/11/22 09:53:19;;;;;;;;;;;0.30;99.90;;;;;;5090274;28;19904;-62
2022/11/22 09:55:47;;;;;;;;;;;0.30;99.90;;;;;;5090621;28;19943;-59
2022/11/22 09:58:15;;;;;;;;;;;0.30;99.90;;;;;;5090436;28;19907;-61
2022/11/22 10:00:42;;;;;;;;;;;0.30;99.90;;;;;;5091062;28;19953;-61
2022/11/22 10:03:11;;;;;;;;;;;0.30;99.90;;;;;;5074423;28;19912;-62
2022/11/22 10:05:48;;;;;;;;;;;0.30;99.90;;;;;;5090261;28;20446;-62
2022/11/22 10:08:33;;;;;;;;;;;0.30;99.90;;;;;;5089856;28;19915;-61
2022/11/22 10:10:58;;;;;;;;;;;0.30;99.90;;;;;;5090504;28;19958;-62
2022/11/22 10:13:29;;;;;;;;;;;0.30;99.90;;;;;;5089778;28;19908;-62
2022/11/22 10:15:54;;;;;;;;;;;0.30;99.90;;;;;;5090390;28;19975;-63
2022/11/22 10:18:22;;;;;;;;;;;0.30;99.90;;;;;;5088135;28;19908;-62
2022/11/22 10:20:48;;;;;;;;;;;0.40;99.90;;;;;;5089594;28;20382;-61
2022/11/22 10:23:20;;;;;;;;;;;0.40;99.90;;;;;;5074073;28;19908;-61
2022/11/22 10:25:48;;;;;;;;;;;0.40;99.90;;;;;;5071807;28;20302;-62
2022/11/22 10:28:17;;;;;;;;;;;0.40;99.90;;;;;;5089532;28;20431;-63
2022/11/22 10:31:03;;;;;;;;;;;0.40;99.90;;;;;;5089712;28;19908;-61
2022/11/22 10:33:45;;;;;;;;;;;0.40;99.90;;;;;;5064845;28;19915;-62
2022/11/22 10:36:28;;;;;;;;;;;0.50;99.90;;;;;;5089212;28;19991;-63
2022/11/22 10:39:12;;;;;;;;;;;0.50;99.90;;;;;;5089882;28;20421;-62
2022/11/22 10:41:53;;;;;;;;;;;0.50;99.90;;;;;;5089420;28;19947;-62
2022/11/22 10:44:30;;;;;;;;;;;0.50;99.90;;;;;;5088600;28;19908;-62
2022/11/22 10:46:56;;;;;;;;;;;0.50;99.90;;;;;;5082275;28;20286;-62
2022/11/22 10:49:25;;;;;;;;;;;0.50;99.90;;;;;;5089545;28;19904;-62
2022/11/22 10:51:59;;;;;;;;;;;0.50;99.90;;;;;;5089060;28;20287;-62
2022/11/22 10:54:43;;;;;;;;;;;0.60;99.90;;;;;;5090101;28;20282;-62
2022/11/22 10:57:11;;;;;;;;;;;0.50;99.90;;;;;;5088283;28;19908;-61
2022/11/22 10:59:44;;;;;;;;;;;0.50;99.90;;;;;;5089242;28;19919;-61
2022/11/22 11:02:28;;;;;;;;;;;0.60;99.90;;;;;;5088611;28;20052;-62
2022/11/22 11:04:54;;;;;;;;;;;0.60;99.90;;;;;;5086118;28;20287;-62
2022/11/22 11:07:21;;;;;;;;;;;0.60;99.90;;;;;;5089129;28;20386;-61
2022/11/22 11:09:49;;;;;;;;;;;0.60;99.90;;;;;;5076043;28;20012;-62
2022/11/22 11:12:17;;;;;;;;;;;0.60;99.90;;;;;;5089191;28;19915;-62
2022/11/22 11:14:45;;;;;;;;;;;0.60;99.90;;;;;;5089549;28;19915;-63
2022/11/22 11:17:25;;;;;;;;;;;0.60;99.90;;;;;;5089553;28;19957;-62
2022/11/22 11:19:51;;;;;;;;;;;0.70;99.90;;;;;;5089058;28;19916;-63
2022/11/22 11:22:20;;;;;;;;;;;0.70;99.90;;;;;;5079237;28;20002;-63
2022/11/22 11:24:46;;;;;;;;;;;0.80;99.90;;;;;;5070993;28;19950;-64
2022/11/22 11:27:11;;;;;;;;;;;0.70;99.90;;;;;;5089206;28;19908;-64
2022/11/22 11:29:42;;;;;;;;;;;0.70;99.90;;;;;;5089373;28;20454;-63
2022/11/22 11:32:14;;;;;;;;;;;0.70;99.90;;;;;;5088210;28;20257;-63
2022/11/22 11:34:41;;;;;;;;;;;0.80;99.90;;;;;;5088899;28;19908;-64
2022/11/22 11:37:15;;;;;;;;;;;0.80;99.90;;;;;;5087580;28;19974;-64
2022/11/22 11:39:44;;;;;;;;;;;0.80;99.90;;;;;;5089077;28;19904;-64
2022/11/22 11:42:23;;;;;;;;;;;0.80;99.90;;;;;;5088721;28;19989;-63
2022/11/22 11:44:49;;;;;;;;;;;0.80;99.90;;;;;;5089509;28;19952;-64
2022/11/22 11:47:19;;;;;;;;;;;0.80;99.90;;;;;;5076710;28;19944;-66
2022/11/22 11:49:51;;;;;;;;;;;0.80;99.90;;;;;;5089447;28;19908;-63
2022/11/22 11:52:24;;;;;;;;;;;0.90;99.90;;;;;;5086284;28;20394;-65
2022/11/22 11:54:55;;;;;;;;;;;0.90;99.90;;;;;;5089227;28;19996;-65
2022/11/22 11:57:26;;;;;;;;;;;0.90;99.90;;;;;;5088927;28;19973;-64
2022/11/22 11:59:52;;;;;;;;;;;0.90;99.90;;;;;;5088850;28;19904;-66
2022/11/22 12:02:23;;;;;;;;;;;0.90;99.90;;;;;;5088124;28;19953;-66
2022/11/22 12:04:49;;;;;;;;;;;0.90;99.90;;;;;;5073004;28;20011;-65
2022/11/22 12:07:25;;;;;;;;;;;0.90;99.90;;;;;;5090176;22;20010;-60
2022/11/22 12:09:52;;;;;;;;;;;0.90;99.90;;;;;;5039847;28;19916;-58
2022/11/22 12:12:33;;;;;;;;;;;1.00;99.90;;;;;;5032813;28;19908;-57
2022/11/22 12:15:17;;;;;;;;;;;1.00;99.90;;;;;;5042701;28;19916;-58
2022/11/22 12:17:47;;;;;;;;;;;1.00;99.90;;;;;;5040897;28;20080;-59
2022/11/22 12:20:21;;;;;;;;;;;1.00;99.90;;;;;;5043136;28;19909;-59
2022/11/22 12:22:46;;;;;;;;;;;1.00;99.90;;;;;;5038922;28;20386;-59
2022/11/22 12:25:12;;;;;;;;;;;1.10;99.90;;;;;;5039584;28;19951;-60
2022/11/22 12:27:37;;;;;;;;;;;1.10;99.90;;;;;;5040961;28;20269;-61
2022/11/22 12:30:05;;;;;;;;;;;1.10;99.90;;;;;;5042456;28;19992;-63
2022/11/22 12:32:35;;;;;;;;;;;1.10;99.90;;;;;;5039925;28;20032;-63
2022/11/22 12:35:04;;;;;;;;;;;1.10;99.90;;;;;;5040990;28;19998;-60
2022/11/22 12:37:39;;;;;;;;;;;1.10;99.90;;;;;;5041300;28;19909;-60
2022/11/22 12:40:11;;;;;;;;;;;1.10;99.90;;;;;;5043483;28;19977;-63
2022/11/22 12:42:47;;;;;;;;;;;1.10;99.90;;;;;;5039665;28;19913;-59
2022/11/22 12:45:17;;;;;;;;;;;1.10;99.90;;;;;;5044795;28;19909;-59
2022/11/22 12:47:44;;;;;;;;;;;1.20;99.90;;;;;;5041201;28;19931;-58
2022/11/22 12:50:23;;;;;;;;;;;1.10;99.90;;;;;;5043045;28;20152;-58
2022/11/22 12:52:55;;;;;;;;;;;1.20;99.90;;;;;;5041383;28;19916;-59
2022/11/22 12:55:22;;;;;;;;;;;1.20;99.90;;;;;;5029064;28;19904;-59
2022/11/22 12:57:51;;;;;;;;;;;1.20;99.90;;;;;;5038050;28;19909;-60
2022/11/22 13:00:20;;;;;;;;;;;1.20;99.90;;;;;;5029169;28;19916;-60
2022/11/22 13:02:49;;;;;;;;;;;1.30;99.90;;;;;;5039478;28;20716;-60
2022/11/22 13:05:20;;;;;;;;;;;1.20;99.90;;;;;;5024804;28;19998;-60
2022/11/22 13:07:55;;;;;;;;;;;1.30;99.90;;;;;;5037468;28;19912;-58
2022/11/22 13:10:25;;;;;;;;;;;1.20;99.90;;;;;;5030451;28;19915;-60
2022/11/22 13:12:51;;;;;;;;;;;1.30;99.90;;;;;;5039113;28;19922;-59
2022/11/22 13:15:23;;;;;;;;;;;1.30;99.90;;;;;;5043091;28;20374;-59
2022/11/22 13:17:49;;;;;;;;;;;1.30;99.90;;;;;;5042377;28;19958;-59
2022/11/22 13:20:17;;;;;;;;;;;1.30;99.90;;;;;;5037128;28;20000;-60
2022/11/22 13:22:42;;;;;;;;;;;1.30;99.90;;;;;;5040069;28;20377;-60
2022/11/22 13:25:13;;;;;;;;;;;1.30;99.90;;;;;;5034098;28;19916;-60
2022/11/22 13:27:40;;;;;;;;;;;1.30;99.90;;;;;;5042684;28;20084;-61
2022/11/22 13:30:20;;;;;;;;;;;1.30;99.90;;;;;;5040681;28;20754;-60
2022/11/22 13:32:48;;;;;;;;;;;1.30;99.90;;;;;;5034676;28;19974;-60
2022/11/22 13:35:13;;;;;;;;;;;1.40;99.90;;;;;;5040337;28;20003;-61
2022/11/22 13:37:44;;;;;;;;;;;1.40;99.90;;;;;;5039186;28;20000;-61
2022/11/22 13:40:15;;;;;;;;;;;1.40;99.90;;;;;;5045524;28;20324;-61
2022/11/22 13:42:40;;;;;;;;;;;1.40;99.90;;;;;;5039084;28;19909;-60
2022/11/22 13:45:18;;;;;;;;;;;1.40;99.90;;;;;;5038851;28;19962;-61
2022/11/22 13:47:43;;;;;;;;;;;1.40;99.90;;;;;;5038401;28;19913;-61
2022/11/22 13:50:28;;;;;;;;;;;1.40;99.90;;;;;;5037257;28;19995;-61
2022/11/22 13:52:53;;;;;;;;;;;1.40;99.90;;;;;;5040731;28;19972;-62
2022/11/22 13:55:30;;;;;;;;;;;1.40;99.90;;;;;;5036444;28;19921;-61
2022/11/22 13:58:15;;;;;;;;;;;1.40;99.90;;;;;;5042739;28;19932;-62
2022/11/22 14:00:41;;;;;;;;;;;1.40;99.90;;;;;;5036008;28;19909;-62
2022/11/22 14:03:42;;;;;;;;;;;1.40;99.90;;;;;;5038446;28;20296;-62
2022/11/22 14:06:33;;;;;;;;;;;1.40;99.90;;;;;;4966694;28;20009;-62
2022/11/22 14:09:16;;;;;;;;;;;1.30;99.90;;;;;;5030024;28;19921;-62
2022/11/22 14:12:01;;;;;;;;;;;1.40;99.90;;;;;;5029329;28;20035;-62
2022/11/22 14:14:33;;;;;;;;;;;1.40;99.90;;;;;;5002287;28;19915;-61
2022/11/22 14:17:09;;;;;;;;;;;1.40;99.90;;;;;;5037234;28;19916;-63
2022/11/22 14:19:45;;;;;;;;;;;1.30;99.90;;;;;;5033772;28;19992;-62
2022/11/22 14:22:17;;;;;;;;;;;1.40;99.90;;;;;;5041438;28;19912;-63
2022/11/22 14:25:00;;;;;;;;;;;1.40;99.90;;;;;;5026985;28;19961;-61
2022/11/22 14:27:40;;;;;;;;;;;1.40;99.90;;;;;;5032803;28;19904;-63
2022/11/22 14:30:07;;;;;;;;;;;1.40;99.90;;;;;;5034993;28;19912;-63
2022/11/22 14:32:40;;;;;;;;;;;1.50;99.90;;;;;;5036560;28;19909;-63
2022/11/22 14:35:06;;;;;;;;;;;1.40;99.90;;;;;;5042632;28;20012;-63
2022/11/22 14:37:31;;;;;;;;;;;1.50;99.90;;;;;;5037918;28;20432;-63
2022/11/22 14:40:00;;;;;;;;;;;1.50;99.90;;;;;;5043130;28;20003;-63
2022/11/22 14:42:42;;;;;;;;;;;1.40;99.90;;;;;;5037445;28;19940;-61